Terminal Aerodrome Forecast
Issued by NWS Grand Forks, ND

Home | Current Version | Previous Version | Graphics & Text | Print | Product List | Glossary On
Versions: 1 2 3 4 5 6 7 8 9 10 11 12 13 14 15 16 17 18 19 20 21 22
804
FTUS43 KFGF 112155 AAA
TAFFAR
TAF AMD
KFAR 112155Z 1122/1218 13003KT P6SM BKN025
     FM120300 35007KT P6SM BKN040
     FM120500 34010KT P6SM BKN250=

USA.gov is the U.S. government's official web portal to all federal, state and local government web resources and services.